Skip Navigation Links Skip Navigation Links

Current Weather

Maraba, Brazil

For information only: do not use for flight planning or navigation.
Latest weather
Observation time Saturday, October 21, 2017 5:00 PM BRST
Local time Saturday, October 21, 2017 5:35 PM BRST
Flight conditions Visual Meteorological Conditions
Winds
Wind direction Northeast (50°)
Wind speed 9 mph
Visibility 6.2 mi.
Sky condition
Ceiling unlimited
Cloud layer few clouds 3,000 ft.
Temperature 104°F
Dewpoint 68°F
Altimeter 29.77 in.Hg
Derived measurements
Relative humidity 32%
Heat index 104°F
Density altitude 3300 ft.
METAR SBMA 211900Z 05008KT 9999 FEW030 40/20 Q1008

Settings

Location code

InnerDrive.Weather 4.0.6144.1 Release CLR 4.0.30319.36366
Copyright ©2015 Inner Drive Technology. All rights reserved. Portions Copyright ©1986-2015 David Braverman.

Find weather

Site navigation


Skip Navigation Links

Place info

Page info

PayPal - The safer, easier way to pay online!

Return home.

Copyright ©2017 Inner Drive Technology. Purveyors of fine, hand-crafted computer software. Page printed 2017-10-21T19:35:00 UTC.